Time;durP1;ratioP1;P1;durP2;ratioP2;P2;SDS_P1;SDS_P2;PMS_P1;PMS_P2;Temp;Humidity;BMP_temperature;BMP_pressure;BME280_temperature;BME280_humidity;BME280_pressure;Samples;Min_cycle;Max_cycle;Signal;HPM_P1;HPM_P2
2022/09/24 00:01:15;;;;;;;23.58;16.85;;;;;;;12.58;97.71;101247.34;5060747;28;20499;-78
2022/09/24 00:03:44;;;;;;;25.15;18.10;;;;;;;12.56;97.98;101247.38;5055956;28;20025;-78
2022/09/24 00:06:13;;;;;;;21.77;16.52;;;;;;;12.54;98.72;101249.22;5063945;28;20020;-78
2022/09/24 00:08:39;;;;;;;21.30;15.65;;;;;;;12.51;97.85;101246.59;5055283;28;20356;-78
2022/09/24 00:11:06;;;;;;;20.30;16.63;;;;;;;12.51;98.19;101245.72;5040062;28;20090;-78
2022/09/24 00:13:33;;;;;;;20.30;14.98;;;;;;;12.48;97.86;101242.22;5051993;28;20455;-77
2022/09/24 00:16:05;;;;;;;19.92;15.75;;;;;;;12.45;96.81;101246.75;5051433;28;20072;-78
2022/09/24 00:18:30;;;;;;;20.83;16.25;;;;;;;12.45;97.47;101244.97;5051981;28;20460;-78
2022/09/24 00:20:56;;;;;;;19.27;15.75;;;;;;;12.43;97.10;101241.47;5036153;28;20120;-78
2022/09/24 00:23:22;;;;;;;21.02;15.18;;;;;;;12.44;97.11;101239.72;5053820;28;20085;-78
2022/09/24 00:28:33;;;;;;;18.73;14.98;;;;;;;12.42;97.25;101231.75;5058657;28;20036;-78
2022/09/24 00:31:05;;;;;;;20.33;15.10;;;;;;;12.44;97.91;101234.41;5055370;28;20492;-78
2022/09/24 00:33:32;;;;;;;21.83;14.38;;;;;;;12.41;96.96;101235.34;5052743;28;20169;-78
2022/09/24 00:36:00;;;;;;;21.17;14.38;;;;;;;12.41;96.72;101229.13;5050188;28;20105;-78
2022/09/24 00:38:28;;;;;;;19.65;13.90;;;;;;;12.41;97.34;101229.13;5062094;28;20060;-78
2022/09/24 00:40:54;;;;;;;18.02;13.90;;;;;;;12.38;97.13;101229.22;5049871;28;20043;-77
2022/09/24 00:43:41;;;;;;;21.30;13.30;;;;;;;12.37;97.62;101227.47;5049844;28;20024;-78
2022/09/24 00:46:28;;;;;;;19.10;13.45;;;;;;;12.38;98.35;101224.75;5050631;28;20041;-78
2022/09/24 00:49:00;;;;;;;15.80;12.85;;;;;;;12.36;97.58;101223.91;5049983;28;20119;-78
2022/09/24 00:51:27;;;;;;;20.85;13.05;;;;;;;12.37;97.21;101211.53;5049602;28;20055;-78
2022/09/24 00:53:58;;;;;;;15.73;11.77;;;;;;;12.35;97.28;101216.88;5051239;28;20039;-78
2022/09/24 00:56:24;;;;;;;18.15;12.45;;;;;;;12.35;97.09;101213.34;5052100;28;20033;-77
2022/09/24 00:58:53;;;;;;;17.52;12.45;;;;;;;12.35;97.38;101213.34;5049787;28;20045;-78
2022/09/24 01:01:22;;;;;;;16.35;12.40;;;;;;;12.36;97.91;101204.47;5050868;28;20024;-78
2022/09/24 01:03:49;;;;;;;14.27;11.52;;;;;;;12.33;95.57;101202.75;5051074;28;20041;-78
2022/09/24 01:06:15;;;;;;;17.48;13.30;;;;;;;12.34;97.60;101208.94;5050916;28;20039;-78
2022/09/24 01:08:40;;;;;;;14.88;11.60;;;;;;;12.31;96.35;101199.25;5050751;28;20016;-78
2022/09/24 01:11:19;;;;;;;17.38;12.25;;;;;;;12.34;97.50;101201.88;5055000;28;20032;-77
2022/09/24 01:13:58;;;;;;;16.13;12.90;;;;;;;12.35;97.87;101195.63;5051532;28;20040;-77
2022/09/24 01:17:00;;;;;;;18.73;13.55;;;;;;;12.36;98.15;101188.53;5049302;28;20048;-77
2022/09/24 01:19:47;;;;;;;18.98;13.38;;;;;;;12.35;97.64;101187.66;5050200;28;20398;-78
2022/09/24 01:22:16;;;;;;;19.05;13.57;;;;;;;12.34;97.33;101191.25;5050371;28;20113;-77
2022/09/24 01:24:57;;;;;;;19.50;13.00;;;;;;;12.35;97.16;101186.78;5048898;28;20491;-77
2022/09/24 01:27:44;;;;;;;21.67;15.70;;;;;;;12.34;97.34;101183.28;5049621;28;20047;-77
2022/09/24 01:30:12;;;;;;;14.43;11.77;;;;;;;12.35;96.83;101178.81;5059922;28;20174;-78
2022/09/24 01:32:44;;;;;;;16.35;11.82;;;;;;;12.34;97.60;101175.31;5054363;28;20441;-78
2022/09/24 01:35:27;;;;;;;16.88;12.77;;;;;;;12.34;97.54;101172.66;5050531;28;20047;-78
2022/09/24 01:38:03;;;;;;;18.20;12.52;;;;;;;12.31;97.41;101175.34;5050339;28;20114;-78
2022/09/24 01:40:30;;;;;;;15.68;12.25;;;;;;;12.29;97.77;101173.66;5050096;28;20044;-77
2022/09/24 01:42:57;;;;;;;15.77;12.18;;;;;;;12.27;97.14;101169.25;5050423;28;20383;-78
2022/09/24 01:45:25;;;;;;;17.42;13.32;;;;;;;12.27;97.66;101177.22;5048831;28;20077;-78
2022/09/24 01:47:51;;;;;;;15.48;12.52;;;;;;;12.27;98.17;101169.25;5050510;28;20118;-78
2022/09/24 01:50:18;;;;;;;16.92;12.30;;;;;;;12.27;98.00;101163.94;5059748;28;20064;-78
2022/09/24 01:53:00;;;;;;;16.10;12.30;;;;;;;12.29;97.92;101163.91;5059560;28;20040;-77
2022/09/24 01:55:31;;;;;;;16.10;11.70;;;;;;;12.26;97.06;101162.22;5052332;28;20033;-78
2022/09/24 01:58:32;;;;;;;13.93;11.52;;;;;;;12.27;98.07;101165.72;5049714;28;20064;-78
2022/09/24 02:01:07;;;;;;;15.90;11.52;;;;;;;12.27;98.17;101165.72;5035611;28;20171;-78
2022/09/24 02:03:42;;;;;;;20.25;12.20;;;;;;;12.26;98.52;101153.34;5050375;28;20045;-78
2022/09/24 02:06:18;;;;;;;14.60;11.60;;;;;;;12.28;97.95;101154.19;5052208;28;20057;-77
2022/09/24 02:08:47;;;;;;;15.35;11.45;;;;;;;12.29;97.46;101153.31;5050226;28;20387;-77
2022/09/24 02:11:20;;;;;;;14.98;10.85;;;;;;;12.31;97.33;101153.25;5049991;28;20524;-77
2022/09/24 02:14:07;;;;;;;15.38;12.23;;;;;;;12.33;97.53;101154.09;5050186;28;20837;-78
2022/09/24 02:16:40;;;;;;;17.35;11.48;;;;;;;12.34;97.20;101156.72;5049959;28;20045;-77
2022/09/24 02:19:10;;;;;;;18.60;11.90;;;;;;;12.35;97.28;101152.28;5049979;28;20033;-78
2022/09/24 02:21:39;;;;;;;16.95;12.05;;;;;;;12.34;97.62;101153.16;5049810;28;20033;-78
2022/09/24 02:24:13;;;;;;;14.77;12.07;;;;;;;12.31;98.12;101148.78;5049943;28;20519;-77
2022/09/24 02:26:39;;;;;;;15.02;11.50;;;;;;;12.29;97.82;101155.06;5067728;28;20400;-78
2022/09/24 02:29:05;;;;;;;16.13;12.57;;;;;;;12.28;98.40;101143.56;5058531;28;20028;-78
2022/09/24 02:31:36;;;;;;;16.02;12.43;;;;;;;12.24;97.10;101140.13;5034446;28;20484;-77
2022/09/24 02:34:21;;;;;;;19.95;13.02;;;;;;;12.27;97.82;101141.84;5054145;28;20037;-77
2022/09/24 02:37:12;;;;;;;15.27;11.80;;;;;;;12.24;97.99;101139.25;5050211;28;20025;-78
2022/09/24 02:39:38;;;;;;;16.00;11.88;;;;;;;12.25;97.69;101144.50;5048043;28;20045;-78
2022/09/24 02:42:05;;;;;;;15.50;11.93;;;;;;;12.25;97.40;101133.91;5058465;28;20044;-77
2022/09/24 02:44:33;;;;;;;18.52;11.88;;;;;;;12.23;97.40;101135.72;5050489;28;20377;-78
2022/09/24 02:46:58;;;;;;;16.02;12.35;;;;;;;12.23;96.90;101132.19;5064735;28;20029;-78
2022/09/24 02:49:24;;;;;;;18.35;12.13;;;;;;;12.25;96.95;101135.69;5053316;28;20420;-77
2022/09/24 02:51:49;;;;;;;19.35;12.45;;;;;;;12.21;96.80;101126.91;5052716;28;20376;-77
2022/09/24 02:54:18;;;;;;;17.15;13.18;;;;;;;12.21;97.35;101126.03;5051580;28;20502;-77
2022/09/24 02:56:44;;;;;;;20.55;12.73;;;;;;;12.22;97.41;101120.69;5033317;28;20138;-78
2022/09/24 02:59:11;;;;;;;14.63;11.70;;;;;;;12.19;96.07;101126.09;5049043;28;20032;-77
2022/09/24 03:01:36;;;;;;;20.33;13.38;;;;;;;12.18;97.71;101121.66;5048588;28;20400;-78
2022/09/24 03:04:02;;;;;;;17.08;12.75;;;;;;;12.19;98.03;101126.09;5034438;28;20048;-77
2022/09/24 03:06:28;;;;;;;16.77;12.93;;;;;;;12.17;97.70;101130.56;5049775;28;20021;-78
2022/09/24 03:08:54;;;;;;;17.83;13.07;;;;;;;12.19;95.77;101130.50;5049615;28;20506;-78
2022/09/24 03:11:23;;;;;;;19.75;13.82;;;;;;;12.20;97.16;101119.84;5053773;28;20185;-77
2022/09/24 03:13:49;;;;;;;18.35;13.30;;;;;;;12.22;97.13;101122.50;5061580;28;20060;-78
2022/09/24 03:16:16;;;;;;;19.63;14.15;;;;;;;12.22;97.32;101119.84;5056499;28;20128;-78
2022/09/24 03:18:42;;;;;;;16.90;12.93;;;;;;;12.22;97.12;101115.38;5051794;28;20488;-78
2022/09/24 03:21:11;;;;;;;19.60;14.82;;;;;;;12.23;98.01;101117.13;5055964;28;20064;-78
2022/09/24 03:23:36;;;;;;;19.38;14.88;;;;;;;12.23;98.46;101108.28;5055862;28;20515;-78
2022/09/24 03:26:03;;;;;;;21.50;15.32;;;;;;;12.22;98.40;101110.09;5053440;28;20116;-78
2022/09/24 03:28:29;;;;;;;23.83;16.48;;;;;;;12.22;99.07;101112.72;5055143;28;20052;-78
2022/09/24 03:31:01;;;;;;;20.42;15.15;;;;;;;12.23;98.69;101109.16;5053226;28;20384;-78
2022/09/24 03:33:31;;;;;;;20.55;15.52;;;;;;;12.24;99.08;101110.91;5053483;28;20016;-78
2022/09/24 03:36:07;;;;;;;19.23;15.88;;;;;;;12.25;99.50;101114.44;5053044;28;20140;-78
2022/09/24 03:38:34;;;;;;;21.52;15.43;;;;;;;12.27;99.21;101110.84;5057171;28;20033;-77
2022/09/24 03:41:01;;;;;;;21.27;16.35;;;;;;;12.24;99.64;101110.06;5054249;28;20057;-77
2022/09/24 03:43:27;;;;;;;19.25;14.73;;;;;;;12.26;99.10;101108.22;5052999;28;20121;-77
2022/09/24 03:45:54;;;;;;;22.25;16.50;;;;;;;12.25;98.85;101106.47;5052155;28;20031;-77
2022/09/24 03:48:21;;;;;;;23.15;16.95;;;;;;;12.23;99.21;101100.31;5052556;28;20021;-77
2022/09/24 03:50:47;;;;;;;22.35;15.82;;;;;;;12.25;99.56;101098.50;5065747;28;20033;-77
2022/09/24 03:53:14;;;;;;;23.02;16.23;;;;;;;12.25;99.53;101096.72;5062249;28;20452;-77
2022/09/24 03:55:55;;;;;;;23.50;15.32;;;;;;;12.23;99.59;101095.00;5073366;28;20060;-77
2022/09/24 03:58:22;;;;;;;23.10;17.08;;;;;;;12.23;99.40;101095.88;5073600;28;20029;-77
2022/09/24 04:00:49;;;;;;;23.00;16.20;;;;;;;12.21;99.34;101097.69;5073087;28;20474;-77
2022/09/24 04:03:15;;;;;;;22.02;16.67;;;;;;;12.20;99.15;101093.31;5071993;28;20036;-77
2022/09/24 04:05:41;;;;;;;22.38;15.90;;;;;;;12.19;99.78;101091.56;5059356;28;20041;-77
2022/09/24 04:08:06;;;;;;;21.52;16.50;;;;;;;12.19;99.67;101083.63;5071602;28;20139;-77
2022/09/24 04:10:32;;;;;;;22.45;16.58;;;;;;;12.20;98.95;101088.00;5072871;28;20185;-77
2022/09/24 04:12:58;;;;;;;24.65;18.10;;;;;;;12.21;99.68;101083.56;5073071;28;20124;-77
2022/09/24 04:15:23;;;;;;;26.52;18.27;;;;;;;12.19;100.00;101078.31;5070060;28;20049;-76
2022/09/24 04:17:54;;;;;;;21.15;16.77;;;;;;;12.19;99.86;101083.63;5068794;28;20033;-77
2022/09/24 04:20:21;;;;;;;27.77;17.55;;;;;;;12.21;100.00;101084.41;5072806;28;20134;-77
2022/09/24 04:22:51;;;;;;;25.40;18.67;;;;;;;12.20;100.00;101089.78;5071719;28;20060;-77
2022/09/24 04:25:17;;;;;;;21.63;16.90;;;;;;;12.20;100.00;101085.34;5071209;28;20529;-77
2022/09/24 04:27:44;;;;;;;23.02;18.17;;;;;;;12.19;100.00;101086.28;5067303;28;20287;-77
2022/09/24 04:30:13;;;;;;;21.80;17.60;;;;;;;12.19;100.00;101082.72;5059713;28;20024;-77
2022/09/24 04:32:42;;;;;;;24.90;18.08;;;;;;;12.18;100.00;101073.88;5067618;28;20441;-77
2022/09/24 04:35:07;;;;;;;24.00;18.10;;;;;;;12.19;100.00;101075.66;5069471;28;20025;-77
2022/09/24 04:37:33;;;;;;;25.25;17.33;;;;;;;12.19;100.00;101074.75;5072731;28;20133;-77
2022/09/24 04:39:58;;;;;;;25.98;18.33;;;;;;;12.20;100.00;101076.50;5072513;28;20028;-77
2022/09/24 04:42:24;;;;;;;22.08;16.13;;;;;;;12.19;100.00;101080.97;5072420;28;20029;-77
2022/09/24 04:44:49;;;;;;;23.23;17.58;;;;;;;12.17;100.00;101069.50;5067703;28;20447;-77
2022/09/24 04:47:15;;;;;;;25.95;18.65;;;;;;;12.16;100.00;101078.34;5072057;28;20078;-76
2022/09/24 04:49:43;;;;;;;22.98;17.25;;;;;;;12.14;100.00;101068.69;5070959;28;20080;-76
2022/09/24 04:52:09;;;;;;;22.52;17.17;;;;;;;12.13;100.00;101069.59;5058192;28;20025;-77
2022/09/24 04:54:35;;;;;;;25.55;17.92;;;;;;;12.16;100.00;101073.03;5070647;28;20041;-77
2022/09/24 04:57:00;;;;;;;24.83;18.10;;;;;;;12.16;100.00;101072.19;5054410;28;20067;-77
2022/09/24 04:59:26;;;;;;;25.40;17.63;;;;;;;12.18;100.00;101078.31;5071976;28;20032;-77
2022/09/24 05:01:52;;;;;;;25.48;17.77;;;;;;;12.18;100.00;101071.22;5070705;28;20047;-77
2022/09/24 05:04:18;;;;;;;28.48;17.08;;;;;;;12.18;100.00;101076.53;5069467;28;20050;-77
2022/09/24 05:06:44;;;;;;;24.83;16.52;;;;;;;12.18;100.00;101075.66;5060303;28;20099;-77
2022/09/24 05:09:09;;;;;;;23.63;16.48;;;;;;;12.18;100.00;101073.88;5071682;28;20048;-77
2022/09/24 05:11:35;;;;;;;23.88;16.52;;;;;;;12.15;100.00;101073.97;5071621;28;20115;-77
2022/09/24 05:14:00;;;;;;;22.30;16.42;;;;;;;12.13;100.00;101074.91;5071685;28;20032;-76
2022/09/24 05:16:26;;;;;;;24.33;17.73;;;;;;;12.12;100.00;101074.06;5069962;28;20119;-77
2022/09/24 05:18:52;;;;;;;22.20;16.80;;;;;;;12.08;100.00;101071.50;5070201;28;20044;-77
2022/09/24 05:21:17;;;;;;;21.23;15.98;;;;;;;12.10;100.00;101075.00;5069943;28;20040;-77
2022/09/24 05:23:42;;;;;;;18.80;15.77;;;;;;;12.10;100.00;101080.31;5070081;28;20040;-77
2022/09/24 05:28:52;;;;;;;16.70;13.75;;;;;;;12.10;100.00;101082.97;5061533;28;20037;-77
2022/09/24 05:31:17;;;;;;;19.23;16.02;;;;;;;12.13;100.00;101085.53;5065832;28;20686;-77
2022/09/24 05:33:43;;;;;;;20.42;15.35;;;;;;;12.13;100.00;101080.22;5063642;28;20044;-77
2022/09/24 05:36:08;;;;;;;22.10;15.35;;;;;;;12.13;100.00;101082.88;5071428;28;20098;-77
2022/09/24 05:38:34;;;;;;;20.30;15.07;;;;;;;12.13;100.00;101083.75;5071444;28;20078;-77
2022/09/24 05:41:00;;;;;;;22.73;14.73;;;;;;;12.10;100.00;101081.16;5071258;28;20048;-77
2022/09/24 05:43:26;;;;;;;21.15;14.05;;;;;;;12.12;100.00;101089.97;5036727;28;20227;-77
2022/09/24 05:45:53;;;;;;;20.20;15.35;;;;;;;12.12;100.00;101081.16;5064253;28;20116;-77
2022/09/24 05:48:20;;;;;;;21.60;15.23;;;;;;;12.13;100.00;101090.84;5069980;28;20513;-77
2022/09/24 05:50:45;;;;;;;21.30;13.63;;;;;;;12.13;100.00;101088.19;5071079;28;20423;-77
2022/09/24 05:53:11;;;;;;;19.08;14.55;;;;;;;12.13;100.00;101091.72;5069975;28;20033;-77
2022/09/24 05:55:37;;;;;;;18.25;13.82;;;;;;;12.14;100.00;101097.88;5052955;28;20468;-77
2022/09/24 05:58:09;;;;;;;19.90;13.70;;;;;;;12.14;100.00;101089.91;5071170;28;20365;-77
2022/09/24 06:00:35;;;;;;;16.10;13.32;;;;;;;12.15;100.00;101097.00;5070949;28;20036;-77
2022/09/24 06:03:14;;;;;;;18.40;13.82;;;;;;;12.15;100.00;101095.22;5070942;28;20334;-77
2022/09/24 06:05:45;;;;;;;18.00;14.07;;;;;;;12.17;100.00;101103.16;5057419;28;20149;-77
2022/09/24 06:08:11;;;;;;;;;;;;;;;12.21;100.00;101097.69;5039645;28;20108;-77
2022/09/24 06:10:36;;;;;;;15.35;12.48;;;;;;;12.17;100.00;101095.19;5070775;28;20061;-77
2022/09/24 06:13:02;;;;;;;18.27;12.02;;;;;;;12.15;100.00;101100.50;5064411;28;20392;-77
2022/09/24 06:15:28;;;;;;;17.65;13.05;;;;;;;12.13;100.00;101102.34;5056819;28;20123;-77
2022/09/24 06:17:53;;;;;;;16.75;12.70;;;;;;;12.14;100.00;101105.84;5065329;28;20137;-77
2022/09/24 06:20:19;;;;;;;15.57;12.50;;;;;;;12.14;100.00;101103.19;5069464;28;20024;-77
2022/09/24 06:22:45;;;;;;;15.73;12.55;;;;;;;12.16;100.00;101110.22;5069478;28;20395;-77
2022/09/24 06:25:10;;;;;;;15.30;11.88;;;;;;;12.15;100.00;101099.66;5070709;28;20192;-77
2022/09/24 06:27:36;;;;;;;18.95;13.00;;;;;;;12.16;100.00;101104.03;5060652;28;20091;-77
2022/09/24 06:30:03;;;;;;;17.10;12.13;;;;;;;12.16;100.00;101104.03;5054186;28;20101;-77
2022/09/24 06:32:29;;;;;;;16.52;12.43;;;;;;;12.14;100.00;101108.50;5066546;28;20028;-77
2022/09/24 06:34:54;;;;;;;14.95;12.07;;;;;;;12.15;100.00;101113.78;5067198;28;20471;-77
2022/09/24 06:37:20;;;;;;;15.52;12.23;;;;;;;12.17;100.00;101116.41;5070685;28;20107;-77
2022/09/24 06:39:45;;;;;;;16.98;12.50;;;;;;;12.17;100.00;101116.41;5070621;28;20505;-77
2022/09/24 06:42:11;;;;;;;14.63;10.85;;;;;;;12.16;100.00;101115.53;5070465;28;20045;-77
2022/09/24 06:44:37;;;;;;;17.20;12.57;;;;;;;12.17;100.00;101119.94;5067282;28;20539;-77
2022/09/24 06:47:03;;;;;;;15.63;12.50;;;;;;;12.19;100.00;101118.13;5071494;28;20170;-76
2022/09/24 06:49:28;;;;;;;17.25;12.60;;;;;;;12.19;100.00;101125.19;5074264;28;20032;-77
2022/09/24 06:51:54;;;;;;;16.17;12.48;;;;;;;12.20;100.00;101125.16;5074543;28;20024;-77
2022/09/24 06:54:21;;;;;;;16.67;12.23;;;;;;;12.20;100.00;101122.50;5073845;28;20506;-77
2022/09/24 06:56:47;;;;;;;17.67;12.25;;;;;;;12.23;100.00;101126.88;5059921;28;20044;-77
2022/09/24 06:59:12;;;;;;;13.13;10.77;;;;;;;12.23;100.00;101124.22;5070631;28;20078;-77
2022/09/24 07:01:38;;;;;;;13.73;10.32;;;;;;;12.22;100.00;101126.00;5072898;28;20032;-77
2022/09/24 07:04:03;;;;;;;15.73;11.60;;;;;;;12.24;100.00;101126.00;5072475;28;20125;-77
2022/09/24 07:07:28;;;;;;;15.85;12.27;;;;;;;12.25;100.00;101131.25;5042473;28;20048;-77
2022/09/24 07:09:14;;;;;;;15.07;11.35;;;;;;;12.25;100.00;101128.59;5073775;28;20099;-77
2022/09/24 07:11:40;;;;;;;17.45;12.90;;;;;;;12.26;100.00;101135.66;5072473;28;20069;-77
2022/09/24 07:14:06;;;;;;;18.23;12.82;;;;;;;12.26;100.00;101130.34;5072478;28;20123;-77
2022/09/24 07:16:31;;;;;;;14.95;11.55;;;;;;;12.27;100.00;101140.06;5073705;28;20045;-77
2022/09/24 07:18:57;;;;;;;15.98;11.98;;;;;;;12.29;100.00;101133.81;5073881;28;20525;-77
2022/09/24 07:21:22;;;;;;;17.63;12.32;;;;;;;12.32;100.00;101141.72;5073687;28;20099;-77
2022/09/24 07:23:48;;;;;;;15.98;12.75;;;;;;;12.33;100.00;101139.00;5073819;28;20052;-77
2022/09/24 07:26:13;;;;;;;17.85;12.63;;;;;;;12.34;100.00;101140.78;5070346;28;20031;-77
2022/09/24 07:28:39;;;;;;;17.40;12.32;;;;;;;12.39;100.00;101143.34;5067313;28;20560;-77
2022/09/24 07:31:04;;;;;;;16.73;12.27;;;;;;;12.37;100.00;101140.69;5066270;28;20129;-77
2022/09/24 07:33:31;;;;;;;17.05;12.85;;;;;;;12.39;100.00;101148.63;5063980;28;20103;-77
2022/09/24 07:35:56;;;;;;;17.40;12.68;;;;;;;12.41;100.00;101146.78;5073441;28;20049;-77
2022/09/24 07:38:22;;;;;;;17.33;12.48;;;;;;;12.41;100.00;101147.69;5055662;28;20040;-77
2022/09/24 07:40:47;;;;;;;15.15;12.48;;;;;;;12.43;100.00;101153.81;5073326;28;20041;-77
2022/09/24 07:43:13;;;;;;;18.88;11.95;;;;;;;12.45;100.00;101162.63;5055515;28;20387;-77
2022/09/24 07:45:39;;;;;;;17.08;12.27;;;;;;;12.47;100.00;101157.28;5067073;28;20613;-76
2022/09/24 07:48:05;;;;;;;16.00;12.70;;;;;;;12.45;100.00;101154.66;5072280;28;20044;-77
2022/09/24 07:50:38;;;;;;;21.05;12.63;;;;;;;12.46;100.00;101163.50;5059043;28;20025;-77
2022/09/24 07:53:05;;;;;;;18.25;12.80;;;;;;;12.47;100.00;101163.47;5056544;28;20025;-77
2022/09/24 07:55:30;;;;;;;18.17;11.77;;;;;;;12.48;100.00;101167.84;5038085;28;20384;-76
2022/09/24 07:57:56;;;;;;;15.73;11.98;;;;;;;12.52;100.00;101166.00;5055214;28;20028;-77
2022/09/24 08:00:23;;;;;;;18.27;12.75;;;;;;;12.55;100.00;101167.72;5036892;28;20480;-77
2022/09/24 08:02:50;;;;;;;19.70;13.07;;;;;;;12.56;100.00;101170.34;5054636;28;20037;-76
2022/09/24 08:05:16;;;;;;;16.70;12.27;;;;;;;12.55;100.00;101165.94;5056590;28;20089;-77
2022/09/24 08:07:49;;;;;;;17.92;12.45;;;;;;;12.57;100.00;101168.56;5052166;28;20349;-77
2022/09/24 08:10:14;;;;;;;18.27;13.57;;;;;;;12.55;100.00;101159.75;5058222;28;20036;-77
2022/09/24 08:12:40;;;;;;;17.45;13.23;;;;;;;12.57;100.00;101176.53;5053513;28;20488;-77
2022/09/24 08:15:06;;;;;;;17.73;13.45;;;;;;;12.59;100.00;101172.91;5052465;28;20033;-77
2022/09/24 08:17:32;;;;;;;16.88;12.65;;;;;;;12.60;100.00;101163.16;5051247;28;20041;-77
2022/09/24 08:19:57;;;;;;;17.13;12.82;;;;;;;12.60;100.00;101173.78;5050758;28;20050;-77
2022/09/24 08:22:23;;;;;;;15.80;13.02;;;;;;;12.58;100.00;101172.94;5056643;28;20029;-77
2022/09/24 08:24:49;;;;;;;18.67;13.85;;;;;;;12.59;100.00;101182.69;5051501;28;21503;-77
2022/09/24 08:27:16;;;;;;;19.13;14.27;;;;;;;12.58;100.00;101173.81;5058944;28;20037;-77
2022/09/24 08:29:42;;;;;;;18.23;13.57;;;;;;;12.60;100.00;101176.44;5057447;28;20043;-77
2022/09/24 08:32:07;;;;;;;16.90;13.25;;;;;;;12.63;100.00;101187.00;5062701;28;20033;-77
2022/09/24 08:34:37;;;;;;;18.58;13.32;;;;;;;12.64;100.00;101189.63;5054395;28;20059;-77
2022/09/24 08:37:04;;;;;;;20.00;12.95;;;;;;;12.67;100.00;101184.22;5051796;28;20037;-77
2022/09/24 08:39:31;;;;;;;17.38;12.95;;;;;;;12.69;100.00;101182.41;5060727;28;20040;-77
2022/09/24 08:42:04;;;;;;;19.13;14.35;;;;;;;12.68;100.00;101182.44;5051949;28;20107;-77
2022/09/24 08:47:53;;;;;;;17.50;13.80;;;;;;;12.77;100.00;101194.63;5053798;28;20044;-77
2022/09/24 08:50:25;;;;;;;18.30;13.82;;;;;;;12.76;100.00;101192.88;5055870;28;20028;-77
2022/09/24 08:53:01;;;;;;;17.25;13.43;;;;;;;12.76;100.00;101195.53;5053970;28;20029;-77
2022/09/24 08:55:37;;;;;;;16.23;12.43;;;;;;;12.79;100.00;101195.47;5056964;28;20102;-77
2022/09/24 08:58:17;;;;;;;17.17;13.55;;;;;;;12.82;100.00;101198.03;5060663;28;20094;-77
2022/09/24 09:00:47;;;;;;;19.63;14.10;;;;;;;12.81;100.00;101197.16;5056581;28;20037;-77
2022/09/24 09:03:27;;;;;;;19.67;13.55;;;;;;;12.81;100.00;101201.59;5050480;28;20037;-77
2022/09/24 09:06:00;;;;;;;18.97;14.43;;;;;;;12.83;100.00;101205.97;5050796;28;20048;-78
2022/09/24 09:08:40;;;;;;;22.35;14.13;;;;;;;12.87;100.00;101206.75;5056611;28;20365;-77
2022/09/24 09:11:12;;;;;;;17.88;14.50;;;;;;;12.85;100.00;101206.78;5054957;28;20111;-78
2022/09/24 09:13:44;;;;;;;17.50;13.30;;;;;;;12.86;100.00;101213.88;5049940;28;20032;-78
2022/09/24 09:16:23;;;;;;;18.63;13.77;;;;;;;12.87;100.00;101218.25;5050752;28;20041;-78
2022/09/24 09:18:54;;;;;;;20.55;14.45;;;;;;;12.87;100.00;101210.28;5051007;28;20041;-78
2022/09/24 09:21:38;;;;;;;19.95;13.73;;;;;;;12.89;100.00;101208.47;5050843;28;20419;-78
2022/09/24 09:24:06;;;;;;;17.65;12.93;;;;;;;12.89;99.40;101219.09;5057219;28;20037;-78
2022/09/24 09:26:31;;;;;;;17.80;13.13;;;;;;;12.89;99.97;101219.09;5050822;28;20021;-78
2022/09/24 09:28:59;;;;;;;16.52;11.88;;;;;;;12.89;98.99;101218.22;5058341;28;20399;-78
2022/09/24 09:31:37;;;;;;;14.90;11.95;;;;;;;12.91;98.93;101219.94;5044335;28;20041;-78
2022/09/24 09:34:17;;;;;;;21.15;13.05;;;;;;;12.94;99.86;101223.44;5056568;28;20067;-78
2022/09/24 09:37:04;;;;;;;17.35;13.63;;;;;;;12.96;100.00;101218.94;5050539;28;20365;-78
2022/09/24 09:39:58;;;;;;;20.02;12.43;;;;;;;13.03;99.83;101223.19;5050364;28;20080;-78
2022/09/24 09:42:33;;;;;;;28.33;14.13;;;;;;;13.05;99.20;101219.56;5050704;28;20032;-78
2022/09/24 09:45:00;;;;;;;22.45;12.40;;;;;;;13.09;99.17;101221.25;5050418;28;20068;-78
2022/09/24 09:47:42;;;;;;;18.45;13.23;;;;;;;13.16;99.43;101221.97;5050066;28;20040;-78
2022/09/24 09:50:14;;;;;;;15.30;12.32;;;;;;;13.20;99.51;101217.44;5061914;28;20025;-78
2022/09/24 09:52:39;;;;;;;15.95;12.63;;;;;;;13.21;97.41;101211.22;5061972;28;20070;-78
2022/09/24 09:55:05;;;;;;;19.45;13.43;;;;;;;13.24;98.20;101217.31;5050703;28;20078;-78
2022/09/24 09:57:35;;;;;;;19.35;13.60;;;;;;;13.25;96.78;101224.38;5049460;28;20045;-78
2022/09/24 10:00:01;;;;;;;19.60;13.85;;;;;;;13.25;97.58;101220.84;5053979;28;20484;-78
2022/09/24 10:02:32;;;;;;;20.70;13.10;;;;;;;13.35;99.43;101222.34;5054232;28;20032;-78
2022/09/24 10:05:00;;;;;;;17.30;13.52;;;;;;;13.39;99.42;101221.38;5056611;28;20115;-78
2022/09/24 10:07:27;;;;;;;18.50;14.27;;;;;;;13.40;97.79;101227.56;5050573;28;20098;-78
2022/09/24 10:10:01;;;;;;;19.15;13.82;;;;;;;13.42;96.96;101223.06;5053367;28;20044;-78
2022/09/24 10:12:28;;;;;;;21.92;13.13;;;;;;;13.44;97.16;101226.56;5054210;28;20032;-78
2022/09/24 10:14:59;;;;;;;18.52;13.95;;;;;;;13.45;97.53;101223.88;5050861;28;20469;-78
2022/09/24 10:17:27;;;;;;;;;;;;;;;13.52;96.70;101229.88;5050751;28;20492;-78
2022/09/24 10:19:54;;;;;;;16.13;12.45;;;;;;;13.52;96.14;101224.56;5054222;28;19920;-78
2022/09/24 10:22:25;;;;;;;19.02;14.52;;;;;;;13.61;98.09;101226.97;5058321;28;20043;-79
2022/09/24 10:24:53;;;;;;;18.80;14.30;;;;;;;13.71;98.14;101216.94;5058485;28;20086;-78
2022/09/24 10:27:36;;;;;;;17.13;13.63;;;;;;;13.79;96.12;101222.03;5072652;28;20055;-78
2022/09/24 10:33:14;;;;;;;18.55;13.45;;;;;;;13.76;94.94;101220.34;5011073;28;20112;-77
2022/09/24 10:35:39;;;;;;;19.05;14.60;;;;;;;13.77;95.33;101224.72;5049928;28;20159;-77
2022/09/24 10:38:20;;;;;;;18.63;13.85;;;;;;;13.79;95.63;101224.69;5054987;28;20095;-78
2022/09/24 10:40:46;;;;;;;16.17;13.52;;;;;;;13.80;95.95;101227.31;5053478;28;20472;-78
2022/09/24 10:43:20;;;;;;;17.90;13.35;;;;;;;13.84;95.31;101223.63;5054113;28;20059;-77
2022/09/24 10:46:30;;;;;;;19.60;14.20;;;;;;;13.86;94.37;101226.25;5052575;28;20029;-78
2022/09/24 10:49:20;;;;;;;17.83;14.10;;;;;;;13.84;95.38;101220.97;5031680;28;20111;-77
2022/09/24 10:51:55;;;;;;;17.10;13.15;;;;;;;13.92;95.57;101232.28;5069242;28;20045;-78
2022/09/24 10:54:29;;;;;;;21.45;14.15;;;;;;;13.94;93.45;101230.44;5069205;28;20042;-78
2022/09/24 10:56:56;;;;;;;17.40;13.27;;;;;;;13.88;93.42;101221.78;5066042;28;20414;-78
2022/09/24 10:59:53;;;;;;;21.73;13.73;;;;;;;13.91;94.12;101232.31;5070906;28;20105;-78
2022/09/24 11:02:46;;;;;;;18.52;14.60;;;;;;;13.99;96.81;101227.63;5073615;28;20025;-78
2022/09/24 11:05:18;;;;;;;20.23;14.05;;;;;;;14.09;96.66;101229.09;5058504;28;20076;-78
2022/09/24 11:08:20;;;;;;;18.33;13.70;;;;;;;14.21;95.47;101233.19;5056265;28;20042;-78
2022/09/24 11:11:01;;;;;;;20.60;13.27;;;;;;;14.24;92.09;101240.22;5055227;28;20080;-78
2022/09/24 11:13:43;;;;;;;;;;;;;;;14.24;92.21;101241.06;5055712;28;20167;-78
2022/09/24 11:16:46;;;;;;;18.02;13.10;;;;;;;14.30;93.52;101242.69;5052757;28;19916;-78
2022/09/24 11:19:35;;;;;;;20.85;13.05;;;;;;;14.30;91.94;101234.72;5054423;28;20021;-79
2022/09/24 11:22:13;;;;;;;18.75;13.05;;;;;;;14.28;90.63;101232.09;5058114;28;20104;-79
2022/09/24 11:24:47;;;;;;;19.27;13.35;;;;;;;14.28;91.81;101248.06;5057512;28;20160;-78
2022/09/24 11:27:51;;;;;;;19.25;14.48;;;;;;;14.30;92.85;101246.22;5051051;28;20377;-78
2022/09/24 11:30:23;;;;;;;20.35;14.27;;;;;;;14.25;91.04;101244.63;5053304;28;20021;-83
2022/09/24 11:33:25;;;;;;;21.83;14.88;;;;;;;14.31;92.95;101252.41;5057676;28;20032;-78